createdAt,value
2018-11-05T00:02:16.342Z,19.53
2018-11-05T00:04:51.067Z,19.13
2018-11-05T00:07:25.764Z,18.97
2018-11-05T00:10:00.342Z,18.73
2018-11-05T00:12:34.938Z,19.67
2018-11-05T00:15:09.488Z,18.23
2018-11-05T00:17:43.875Z,17.37
2018-11-05T00:20:18.662Z,17.00
2018-11-05T00:22:53.334Z,19.10
2018-11-05T00:25:27.855Z,17.80
2018-11-05T00:28:02.794Z,16.60
2018-11-05T00:30:38.284Z,18.37
2018-11-05T00:33:13.107Z,17.77
2018-11-05T00:35:47.773Z,19.73
2018-11-05T00:38:22.337Z,18.17
2018-11-05T00:40:56.978Z,18.83
2018-11-05T00:43:31.875Z,19.47
2018-11-05T00:46:07.292Z,18.27
2018-11-05T00:48:41.859Z,19.00
2018-11-05T00:51:16.997Z,19.40
2018-11-05T00:53:52.878Z,18.23
2018-11-05T00:56:28.143Z,18.80
2018-11-05T00:59:02.740Z,19.03
2018-11-05T01:01:37.465Z,18.40
2018-11-05T01:04:11.960Z,17.40
2018-11-05T01:06:47.681Z,19.17
2018-11-05T01:09:22.179Z,18.90
2018-11-05T01:11:57.099Z,20.37
2018-11-05T01:14:31.541Z,17.83
2018-11-05T01:17:06.747Z,20.40
2018-11-05T01:19:41.310Z,19.60
2018-11-05T01:22:16.670Z,19.50
2018-11-05T01:24:51.479Z,19.10
2018-11-05T01:27:26.314Z,18.93
2018-11-05T01:30:02.033Z,17.53
2018-11-05T01:32:36.548Z,19.43
2018-11-05T01:35:12.476Z,19.80
2018-11-05T01:37:47.371Z,19.60
2018-11-05T01:40:22.646Z,19.30
2018-11-05T01:42:57.271Z,19.90
2018-11-05T01:45:31.867Z,19.27
2018-11-05T01:48:06.648Z,19.00
2018-11-05T01:50:41.218Z,18.23
2018-11-05T01:53:20.829Z,19.90
2018-11-05T01:55:55.382Z,19.30
2018-11-05T01:58:30.610Z,19.63
2018-11-05T02:01:05.355Z,20.97
2018-11-05T02:03:40.035Z,21.73
2018-11-05T02:06:14.742Z,22.03
2018-11-05T02:08:49.600Z,19.20
2018-11-05T02:11:25.057Z,19.97
2018-11-05T02:13:59.743Z,20.90
2018-11-05T02:16:35.419Z,22.77
2018-11-05T02:19:10.119Z,20.80
2018-11-05T02:21:44.910Z,21.27
2018-11-05T02:24:19.803Z,19.60
2018-11-05T02:26:54.415Z,21.40
2018-11-05T02:29:29.095Z,23.87
2018-11-05T02:32:04.052Z,21.47
2018-11-05T02:34:38.649Z,19.93
2018-11-05T02:37:13.256Z,20.17
2018-11-05T02:39:47.958Z,19.33
2018-11-05T02:42:22.636Z,20.70
2018-11-05T02:44:57.926Z,20.77
2018-11-05T02:47:39.001Z,20.50
2018-11-05T02:50:14.130Z,21.90
2018-11-05T02:52:48.904Z,23.23
2018-11-05T02:55:23.711Z,20.63
2018-11-05T02:57:58.497Z,21.37
2018-11-05T03:00:33.495Z,20.27
2018-11-05T03:03:08.254Z,21.30
2018-11-05T03:05:42.959Z,21.10
2018-11-05T03:08:20.406Z,21.13
2018-11-05T03:10:55.262Z,22.10
2018-11-05T03:13:30.004Z,23.97
2018-11-05T03:16:05.538Z,22.67
2018-11-05T03:18:41.366Z,22.20
2018-11-05T03:21:16.299Z,23.37
2018-11-05T03:26:36.136Z,23.07
2018-11-05T03:29:10.792Z,23.17
2018-11-05T03:31:45.702Z,23.40
2018-11-05T03:34:20.218Z,24.83
2018-11-05T03:36:55.122Z,24.33
2018-11-05T03:39:29.909Z,22.60
2018-11-05T03:42:05.096Z,23.73
2018-11-05T03:44:39.758Z,20.10
2018-11-05T03:47:15.055Z,22.10
2018-11-05T03:49:50.362Z,22.40
2018-11-05T03:52:25.263Z,21.83
2018-11-05T03:55:00.059Z,21.00
2018-11-05T03:57:34.818Z,22.97
2018-11-05T04:00:11.223Z,22.50
2018-11-05T04:02:45.942Z,23.17
2018-11-05T04:05:20.683Z,24.33
2018-11-05T04:07:55.324Z,26.10
2018-11-05T04:10:31.148Z,23.90
2018-11-05T04:13:05.874Z,22.53
2018-11-05T04:15:41.569Z,24.20
2018-11-05T04:18:15.957Z,25.60
2018-11-05T04:20:50.518Z,26.20
2018-11-05T04:23:24.947Z,24.60
2018-11-05T04:25:59.490Z,24.50
2018-11-05T04:31:39.569Z,24.80
2018-11-05T04:34:14.173Z,24.63
2018-11-05T04:36:48.921Z,27.00
2018-11-05T04:39:23.524Z,24.97
2018-11-05T04:41:57.929Z,25.10
2018-11-05T04:44:32.614Z,25.53
2018-11-05T04:47:07.243Z,24.70
2018-11-05T04:49:41.845Z,25.40
2018-11-05T04:52:16.353Z,26.90
2018-11-05T04:54:50.877Z,25.97
2018-11-05T04:57:25.525Z,27.40
2018-11-05T05:00:04.320Z,28.43
2018-11-05T05:02:40.220Z,27.07
2018-11-05T05:05:15.945Z,27.80
2018-11-05T05:07:50.357Z,30.60
2018-11-05T05:10:25.115Z,26.23
2018-11-05T05:12:59.542Z,30.97
2018-11-05T05:15:34.081Z,30.70
2018-11-05T05:18:08.714Z,32.30
2018-11-05T05:20:43.412Z,34.67
2018-11-05T05:23:17.793Z,31.03
2018-11-05T05:25:52.513Z,33.63
2018-11-05T05:28:27.048Z,34.23
2018-11-05T05:31:01.641Z,33.13
2018-11-05T05:33:36.545Z,31.93
2018-11-05T05:36:11.095Z,35.37
2018-11-05T05:38:45.799Z,33.20
2018-11-05T05:41:20.527Z,36.27
2018-11-05T05:43:55.314Z,38.97
2018-11-05T05:46:29.983Z,42.00
2018-11-05T05:49:05.312Z,40.70
2018-11-05T05:51:39.984Z,40.73
2018-11-05T05:54:14.421Z,40.00
2018-11-05T05:56:49.113Z,42.73
2018-11-05T05:59:23.604Z,40.17
2018-11-05T06:01:58.160Z,41.50
2018-11-05T06:04:32.806Z,42.53
2018-11-05T06:07:07.272Z,41.30
2018-11-05T06:09:41.922Z,44.30
2018-11-05T06:12:16.585Z,43.53
2018-11-05T06:14:51.265Z,39.63
2018-11-05T06:17:25.840Z,40.47
2018-11-05T06:20:00.707Z,38.10
2018-11-05T06:22:35.187Z,36.47
2018-11-05T06:25:09.775Z,36.37
2018-11-05T06:27:44.358Z,38.13
2018-11-05T06:30:20.381Z,38.20
2018-11-05T06:32:54.949Z,37.83
2018-11-05T06:35:29.676Z,42.60
2018-11-05T06:38:04.297Z,40.63
2018-11-05T06:40:38.942Z,38.40
2018-11-05T06:43:13.528Z,42.37
2018-11-05T06:45:48.077Z,41.70
2018-11-05T06:48:22.872Z,37.50
2018-11-05T06:50:57.476Z,42.23
2018-11-05T06:53:32.040Z,38.97
2018-11-05T06:56:06.809Z,39.00
2018-11-05T06:58:41.341Z,41.77
2018-11-05T07:01:15.942Z,42.03
2018-11-05T07:03:50.453Z,39.07
2018-11-05T07:06:25.207Z,42.00
2018-11-05T07:08:59.869Z,37.83
2018-11-05T07:11:34.553Z,36.93
2018-11-05T07:14:09.275Z,38.50
2018-11-05T07:16:43.872Z,38.80
2018-11-05T07:19:18.666Z,39.80
2018-11-05T07:21:53.142Z,41.30
2018-11-05T07:24:27.665Z,39.73
2018-11-05T07:27:02.246Z,38.80
2018-11-05T07:29:36.793Z,39.83
2018-11-05T07:32:11.304Z,39.00
2018-11-05T07:34:45.733Z,40.03
2018-11-05T07:37:20.314Z,41.33
2018-11-05T07:39:54.787Z,35.53
2018-11-05T07:42:29.358Z,37.43
2018-11-05T07:45:04.450Z,36.20
2018-11-05T07:47:39.019Z,39.33
2018-11-05T07:50:14.844Z,35.90
2018-11-05T07:52:49.735Z,38.97
2018-11-05T07:55:24.304Z,34.10
2018-11-05T07:57:58.833Z,37.23
2018-11-05T08:00:38.684Z,37.90
2018-11-05T08:03:13.366Z,39.10
2018-11-05T08:05:47.729Z,38.20
2018-11-05T08:08:22.461Z,38.40
2018-11-05T08:10:57.495Z,37.53
2018-11-05T08:13:33.291Z,36.17
2018-11-05T08:16:08.095Z,37.13
2018-11-05T08:18:42.788Z,37.67
2018-11-05T08:21:17.433Z,41.60
2018-11-05T08:23:52.018Z,39.73
2018-11-05T08:26:26.634Z,39.73
2018-11-05T08:29:01.089Z,39.27
2018-11-05T08:31:35.820Z,38.33
2018-11-05T08:34:10.394Z,38.20
2018-11-05T08:36:44.968Z,37.40
2018-11-05T08:39:19.505Z,36.80
2018-11-05T08:41:54.005Z,38.27
2018-11-05T08:44:28.678Z,33.47
2018-11-05T08:47:03.273Z,32.80
2018-11-05T08:49:37.796Z,33.53
2018-11-05T08:52:12.448Z,32.27
2018-11-05T08:54:47.095Z,31.37
2018-11-05T08:57:21.791Z,31.17
2018-11-05T08:59:56.476Z,32.20
2018-11-05T09:02:31.252Z,27.60
2018-11-05T09:05:06.082Z,30.50
2018-11-05T09:07:40.722Z,28.97
2018-11-05T09:10:15.373Z,31.67
2018-11-05T09:12:49.920Z,28.07
2018-11-05T09:15:24.577Z,28.73
2018-11-05T09:17:59.155Z,27.93
2018-11-05T09:20:33.719Z,26.37
2018-11-05T09:23:08.425Z,28.13
2018-11-05T09:25:42.928Z,29.83
2018-11-05T09:28:17.505Z,28.37
2018-11-05T09:30:52.110Z,28.40
2018-11-05T09:33:26.614Z,28.07
2018-11-05T09:36:01.292Z,27.07
2018-11-05T09:38:35.918Z,28.70
2018-11-05T09:41:10.425Z,27.67
2018-11-05T09:43:45.036Z,27.43
2018-11-05T09:46:19.612Z,27.57
2018-11-05T09:48:54.045Z,28.70
2018-11-05T09:51:28.660Z,23.87
2018-11-05T09:54:03.169Z,27.50
2018-11-05T09:56:37.588Z,29.50
2018-11-05T09:59:12.320Z,31.00
2018-11-05T10:01:46.893Z,31.50
2018-11-05T10:04:21.575Z,28.47
2018-11-05T10:06:56.157Z,29.67
2018-11-05T10:09:30.851Z,31.50
2018-11-05T10:12:05.520Z,33.50
2018-11-05T10:14:40.300Z,33.70
2018-11-05T10:17:14.841Z,31.47
2018-11-05T10:19:49.356Z,34.30
2018-11-05T10:22:23.976Z,33.37
2018-11-05T10:24:58.620Z,35.00
2018-11-05T10:27:32.993Z,36.13
2018-11-05T10:30:11.321Z,35.70
2018-11-05T10:32:45.905Z,33.87
2018-11-05T10:35:20.448Z,33.37
2018-11-05T10:37:55.140Z,35.00
2018-11-05T10:40:29.941Z,32.67
2018-11-05T10:43:10.936Z,35.57
2018-11-05T10:45:45.441Z,34.70
2018-11-05T10:48:20.052Z,35.23
2018-11-05T10:50:54.602Z,33.13
2018-11-05T10:53:29.216Z,31.50
2018-11-05T10:56:03.817Z,34.27
2018-11-05T10:58:38.343Z,34.00
2018-11-05T11:01:13.536Z,33.00
2018-11-05T11:03:53.579Z,35.43
2018-11-05T11:06:28.158Z,34.27
2018-11-05T11:09:02.933Z,36.37
2018-11-05T11:11:37.311Z,37.77
2018-11-05T11:14:11.921Z,34.83
2018-11-05T11:16:46.675Z,35.47
2018-11-05T11:19:21.327Z,36.70
2018-11-05T11:21:55.849Z,35.00
2018-11-05T11:24:30.444Z,36.67
2018-11-05T11:27:05.267Z,32.97
2018-11-05T11:29:39.789Z,36.00
2018-11-05T11:32:14.346Z,37.03
2018-11-05T11:34:48.856Z,38.20
2018-11-05T11:37:23.515Z,36.33
2018-11-05T11:42:39.767Z,38.37
2018-11-05T11:45:15.213Z,35.77
2018-11-05T11:47:49.738Z,37.60
2018-11-05T11:50:24.628Z,34.60
2018-11-05T11:52:59.347Z,36.17
2018-11-05T11:55:34.128Z,34.00
2018-11-05T11:58:08.784Z,33.97
2018-11-05T12:00:43.541Z,34.63
2018-11-05T12:03:18.241Z,32.23
2018-11-05T12:05:52.922Z,34.23
2018-11-05T12:08:27.327Z,34.37
2018-11-05T12:11:02.019Z,36.90
2018-11-05T12:13:36.685Z,36.67
2018-11-05T12:16:11.434Z,35.93
2018-11-05T12:18:46.061Z,36.50
2018-11-05T12:21:20.853Z,35.90
2018-11-05T12:23:55.370Z,33.90
2018-11-05T12:26:29.964Z,33.23
2018-11-05T12:29:04.555Z,33.90
2018-11-05T12:31:39.193Z,33.20
2018-11-05T12:34:13.857Z,33.63
2018-11-05T12:36:48.457Z,34.17
2018-11-05T12:39:23.165Z,34.57
2018-11-05T12:41:57.736Z,32.73
2018-11-05T12:44:32.469Z,34.30
2018-11-05T12:47:06.982Z,30.67
2018-11-05T12:49:41.496Z,32.67
2018-11-05T12:52:16.033Z,32.40
2018-11-05T12:54:50.740Z,33.17
2018-11-05T12:57:25.430Z,32.87
2018-11-05T13:00:00.068Z,34.37
2018-11-05T13:02:34.696Z,33.40
2018-11-05T13:05:10.134Z,35.30
2018-11-05T13:07:44.643Z,35.70
2018-11-05T13:10:19.333Z,32.07
2018-11-05T13:12:53.974Z,34.40
2018-11-05T13:15:28.773Z,36.70
2018-11-05T13:18:03.061Z,34.20
2018-11-05T13:20:37.477Z,35.67
2018-11-05T13:23:12.114Z,36.93
2018-11-05T13:25:46.907Z,37.50
2018-11-05T13:28:21.449Z,38.17
2018-11-05T13:30:56.033Z,38.07
2018-11-05T13:33:30.680Z,38.70
2018-11-05T13:36:05.481Z,37.13
2018-11-05T13:38:40.110Z,38.30
2018-11-05T13:41:14.687Z,38.10
2018-11-05T13:43:49.158Z,36.67
2018-11-05T13:46:24.019Z,38.50
2018-11-05T13:48:58.749Z,38.40
2018-11-05T13:51:33.145Z,39.80
2018-11-05T13:54:07.675Z,39.23
2018-11-05T13:56:42.136Z,38.10
2018-11-05T13:59:16.700Z,37.23
2018-11-05T14:01:51.332Z,35.40
2018-11-05T14:04:25.895Z,38.90
2018-11-05T14:07:00.500Z,37.40
2018-11-05T14:09:35.053Z,35.67
2018-11-05T14:12:09.683Z,36.87
2018-11-05T14:14:44.278Z,39.00
2018-11-05T14:17:18.884Z,36.60
2018-11-05T14:19:53.404Z,32.77
2018-11-05T14:22:27.808Z,38.80
2018-11-05T14:25:02.384Z,39.70
2018-11-05T14:27:37.019Z,33.13
2018-11-05T14:30:12.460Z,39.20
2018-11-05T14:32:47.842Z,38.97
2018-11-05T14:35:22.509Z,39.33
2018-11-05T14:37:57.220Z,45.03
2018-11-05T14:40:31.834Z,39.30
2018-11-05T14:43:06.509Z,39.83
2018-11-05T14:45:41.073Z,41.33
2018-11-05T14:48:15.688Z,42.67
2018-11-05T14:50:50.349Z,42.97
2018-11-05T14:53:24.827Z,42.70
2018-11-05T14:55:59.533Z,44.17
2018-11-05T14:58:34.232Z,41.90
2018-11-05T15:01:08.764Z,43.73
2018-11-05T15:03:43.348Z,42.83
2018-11-05T15:06:17.863Z,43.13
2018-11-05T15:08:52.400Z,40.83
2018-11-05T15:11:27.089Z,45.40
2018-11-05T15:14:01.766Z,44.37
2018-11-05T15:16:36.230Z,44.47
2018-11-05T15:19:11.324Z,44.47
2018-11-05T15:21:45.545Z,47.10
2018-11-05T15:24:20.211Z,42.73
2018-11-05T15:26:55.052Z,45.73
2018-11-05T15:29:29.374Z,45.30
2018-11-05T15:32:04.038Z,45.47
2018-11-05T15:34:38.581Z,46.90
2018-11-05T15:37:13.313Z,48.60
2018-11-05T15:39:47.932Z,49.73
2018-11-05T15:42:22.684Z,45.27
2018-11-05T15:44:57.349Z,47.83
2018-11-05T15:47:32.064Z,49.27
2018-11-05T15:50:09.168Z,52.60
2018-11-05T15:52:44.057Z,48.07
2018-11-05T15:55:18.374Z,49.90
2018-11-05T15:57:52.853Z,48.97
2018-11-05T16:00:27.432Z,53.60
2018-11-05T16:03:02.464Z,48.90
2018-11-05T16:05:37.145Z,49.80
2018-11-05T16:08:11.673Z,49.20
2018-11-05T16:10:46.257Z,50.37
2018-11-05T16:13:20.614Z,48.60
2018-11-05T16:15:55.392Z,51.13
2018-11-05T16:18:29.970Z,53.83
2018-11-05T16:21:04.525Z,53.57
2018-11-05T16:23:39.164Z,50.03
2018-11-05T16:26:13.821Z,58.30
2018-11-05T16:28:48.272Z,54.57
2018-11-05T16:31:22.761Z,55.77
2018-11-05T16:33:57.418Z,57.23
2018-11-05T16:36:32.082Z,59.70
2018-11-05T16:39:09.157Z,59.37
2018-11-05T16:41:43.664Z,58.50
2018-11-05T16:44:18.296Z,60.27
2018-11-05T16:46:52.790Z,58.80
2018-11-05T16:49:27.389Z,61.23
2018-11-05T16:52:01.975Z,60.37
2018-11-05T16:54:36.535Z,64.07
2018-11-05T16:57:11.185Z,60.03
2018-11-05T16:59:45.685Z,58.90
2018-11-05T17:02:23.659Z,59.47
2018-11-05T17:04:57.827Z,57.30
2018-11-05T17:07:32.385Z,64.20
2018-11-05T17:10:08.145Z,60.33
2018-11-05T17:12:43.537Z,66.80
2018-11-05T17:15:18.090Z,60.20
2018-11-05T17:17:52.724Z,59.00
2018-11-05T17:20:27.466Z,63.47
2018-11-05T17:23:01.896Z,60.60
2018-11-05T17:25:36.670Z,61.80
2018-11-05T17:28:11.251Z,61.87
2018-11-05T17:30:45.731Z,62.80
2018-11-05T17:33:20.310Z,64.20
2018-11-05T17:35:54.949Z,65.47
2018-11-05T17:38:29.453Z,62.77
2018-11-05T17:41:04.097Z,64.67
2018-11-05T17:43:38.653Z,66.73
2018-11-05T17:46:13.191Z,65.37
2018-11-05T17:48:47.962Z,66.20
2018-11-05T17:51:22.481Z,63.03
2018-11-05T17:53:57.009Z,63.67
2018-11-05T17:56:31.527Z,63.63
2018-11-05T17:59:06.738Z,61.47
2018-11-05T18:01:41.196Z,62.10
2018-11-05T18:04:16.104Z,66.03
2018-11-05T18:06:50.536Z,63.73
2018-11-05T18:09:25.052Z,65.60
2018-11-05T18:11:59.588Z,63.97
2018-11-05T18:14:34.191Z,62.67
2018-11-05T18:17:09.018Z,62.13
2018-11-05T18:19:43.656Z,62.77
2018-11-05T18:22:18.170Z,61.47
2018-11-05T18:24:52.923Z,62.07
2018-11-05T18:27:27.458Z,65.27
2018-11-05T18:30:02.152Z,62.37
2018-11-05T18:32:36.751Z,64.93
2018-11-05T18:35:12.453Z,60.00
2018-11-05T18:37:48.744Z,60.10
2018-11-05T18:40:23.316Z,60.90
2018-11-05T18:42:58.068Z,59.53
2018-11-05T18:45:32.800Z,64.80
2018-11-05T18:48:07.379Z,59.70
2018-11-05T18:50:42.163Z,62.37
2018-11-05T18:53:16.801Z,64.00
2018-11-05T18:55:51.439Z,59.47
2018-11-05T18:58:26.073Z,62.47
2018-11-05T19:01:00.779Z,66.00
2018-11-05T19:03:35.379Z,58.00
2018-11-05T19:06:10.069Z,60.10
2018-11-05T19:08:44.589Z,54.97
2018-11-05T19:11:19.317Z,60.73
2018-11-05T19:13:54.049Z,55.67
2018-11-05T19:16:28.609Z,54.30
2018-11-05T19:19:03.282Z,55.87
2018-11-05T19:21:37.751Z,53.83
2018-11-05T19:24:12.524Z,57.37
2018-11-05T19:26:47.077Z,56.77
2018-11-05T19:29:21.810Z,60.10
2018-11-05T19:31:56.390Z,56.40
2018-11-05T19:34:31.180Z,53.50
2018-11-05T19:37:05.897Z,53.90
2018-11-05T19:39:40.435Z,54.47
2018-11-05T19:42:15.076Z,55.53
2018-11-05T19:44:49.584Z,55.30
2018-11-05T19:47:24.104Z,56.53
2018-11-05T19:49:58.691Z,56.27
2018-11-05T19:52:33.174Z,58.70
2018-11-05T19:55:08.489Z,61.67
2018-11-05T19:57:43.822Z,62.80
2018-11-05T20:00:24.298Z,61.03
2018-11-05T20:03:00.058Z,61.70
2018-11-05T20:05:34.773Z,63.47
2018-11-05T20:08:09.373Z,58.80
2018-11-05T20:10:44.024Z,62.90
2018-11-05T20:13:18.671Z,61.60
2018-11-05T20:15:53.196Z,60.20
2018-11-05T20:18:27.728Z,59.70
2018-11-05T20:21:02.146Z,58.83
2018-11-05T20:23:36.738Z,57.70
2018-11-05T20:26:11.402Z,56.50
2018-11-05T20:28:45.895Z,59.73
2018-11-05T20:31:20.749Z,59.70
2018-11-05T20:33:55.166Z,58.67
2018-11-05T20:36:29.644Z,59.07
2018-11-05T20:39:06.367Z,60.60
2018-11-05T20:41:41.122Z,59.83
2018-11-05T20:44:15.665Z,61.53
2018-11-05T20:46:50.374Z,59.53
2018-11-05T20:49:25.118Z,63.63
2018-11-05T20:51:59.746Z,60.53
2018-11-05T20:54:34.708Z,58.70
2018-11-05T20:57:09.236Z,59.33
2018-11-05T20:59:43.873Z,59.20
2018-11-05T21:02:18.531Z,57.77
2018-11-05T21:04:53.107Z,56.73
2018-11-05T21:07:40.738Z,55.63
2018-11-05T21:10:15.595Z,59.03
2018-11-05T21:12:50.162Z,63.00
2018-11-05T21:15:24.667Z,66.60
2018-11-05T21:17:59.282Z,64.83
2018-11-05T21:20:33.826Z,61.70
2018-11-05T21:23:08.390Z,62.57
2018-11-05T21:25:42.920Z,56.27
2018-11-05T21:28:17.600Z,58.17
2018-11-05T21:30:52.276Z,59.70
2018-11-05T21:33:26.689Z,55.77
2018-11-05T21:36:01.321Z,55.00
2018-11-05T21:38:36.014Z,57.90
2018-11-05T21:41:52.018Z,59.07
2018-11-05T21:44:26.642Z,61.40
2018-11-05T21:47:01.402Z,59.67
2018-11-05T21:49:36.031Z,56.07
2018-11-05T21:52:10.670Z,53.47
2018-11-05T21:54:45.662Z,51.83
2018-11-05T21:57:20.367Z,53.90
2018-11-05T21:59:55.085Z,53.70
2018-11-05T22:02:29.767Z,51.90
2018-11-05T22:05:05.196Z,54.57
2018-11-05T22:07:39.914Z,51.43
2018-11-05T22:10:14.455Z,52.80
2018-11-05T22:12:49.285Z,51.83
2018-11-05T22:15:23.913Z,49.40
2018-11-05T22:17:58.835Z,55.10
2018-11-05T22:20:33.336Z,47.70
2018-11-05T22:23:07.762Z,61.40
2018-11-05T22:25:42.254Z,53.73
2018-11-05T22:28:16.880Z,54.63
2018-11-05T22:30:51.621Z,50.77
2018-11-05T22:33:25.992Z,49.77
2018-11-05T22:36:00.478Z,50.43
2018-11-05T22:38:35.118Z,51.00
2018-11-05T22:41:09.665Z,49.80
2018-11-05T22:43:44.430Z,54.50
2018-11-05T22:46:19.018Z,59.97
2018-11-05T22:48:53.599Z,51.73
2018-11-05T22:51:28.201Z,51.93
2018-11-05T22:54:02.861Z,55.77
2018-11-05T22:56:37.390Z,48.60
2018-11-05T22:59:12.043Z,45.40
2018-11-05T23:01:53.190Z,48.40
2018-11-05T23:04:34.460Z,51.83
2018-11-05T23:07:09.018Z,60.60
2018-11-05T23:09:43.582Z,51.00
2018-11-05T23:12:18.109Z,44.90
2018-11-05T23:14:52.740Z,43.80
2018-11-05T23:17:27.232Z,43.30
2018-11-05T23:20:01.807Z,46.90
2018-11-05T23:22:36.394Z,41.97
2018-11-05T23:25:11.226Z,50.50
2018-11-05T23:27:45.806Z,46.53
2018-11-05T23:30:20.277Z,45.70
2018-11-05T23:32:55.062Z,47.00
2018-11-05T23:35:29.651Z,47.70
2018-11-05T23:38:04.282Z,50.60
2018-11-05T23:40:38.744Z,45.67
2018-11-05T23:43:13.579Z,42.63
2018-11-05T23:45:48.175Z,46.27
2018-11-05T23:48:22.844Z,43.73
2018-11-05T23:50:57.560Z,44.53
2018-11-05T23:53:32.194Z,45.40
2018-11-05T23:56:06.709Z,42.30
2018-11-05T23:58:41.382Z,43.77
